createdAt,value
2023-03-26T00:01:16.659Z,1.30
2023-03-26T00:03:45.091Z,1.40
2023-03-26T00:06:14.296Z,1.80
2023-03-26T00:08:41.958Z,1.30
2023-03-26T00:11:10.845Z,1.17
2023-03-26T00:13:37.696Z,1.25
2023-03-26T00:16:04.561Z,1.60
2023-03-26T00:18:31.492Z,1.83
2023-03-26T00:20:58.660Z,1.13
2023-03-26T00:23:27.044Z,1.40
2023-03-26T00:25:54.578Z,1.30
2023-03-26T00:28:22.338Z,1.20
2023-03-26T00:31:01.473Z,1.17
2023-03-26T00:33:28.350Z,1.30
2023-03-26T00:35:58.712Z,1.40
2023-03-26T00:38:26.640Z,1.95
2023-03-26T00:40:54.322Z,1.48
2023-03-26T00:43:22.727Z,1.50
2023-03-26T00:45:51.846Z,1.25
2023-03-26T00:48:18.817Z,1.23
2023-03-26T00:50:46.843Z,0.90
2023-03-26T00:53:14.590Z,1.10
2023-03-26T00:55:41.757Z,1.30
2023-03-26T00:58:10.281Z,1.15
2023-03-26T01:00:42.466Z,1.38
2023-03-26T01:03:21.900Z,1.13
2023-03-26T01:06:04.921Z,1.20
2023-03-26T01:08:42.789Z,1.50
2023-03-26T01:11:16.848Z,1.10
2023-03-26T01:13:52.782Z,1.02
2023-03-26T01:16:26.644Z,1.10
2023-03-26T01:18:54.224Z,1.02
2023-03-26T01:21:28.646Z,1.20
2023-03-26T01:24:13.742Z,1.10
2023-03-26T01:26:52.742Z,1.52
2023-03-26T01:29:33.376Z,1.20
2023-03-26T01:32:37.874Z,1.20
2023-03-26T01:35:14.229Z,1.00
2023-03-26T01:37:52.844Z,1.70
2023-03-26T01:40:42.988Z,1.27
2023-03-26T01:43:12.491Z,1.33
2023-03-26T01:45:42.333Z,1.63
2023-03-26T01:48:08.877Z,1.38
2023-03-26T01:50:35.320Z,1.30
2023-03-26T01:53:01.817Z,1.10
2023-03-26T01:55:56.052Z,1.30
2023-03-26T01:58:38.009Z,1.45
2023-03-26T02:01:46.209Z,1.67
2023-03-26T02:04:54.551Z,1.70
2023-03-26T02:07:37.893Z,1.90
2023-03-26T02:10:33.808Z,1.40
2023-03-26T02:13:00.718Z,1.42
2023-03-26T02:15:27.509Z,2.15
2023-03-26T02:17:54.322Z,2.22
2023-03-26T02:20:21.259Z,1.88
2023-03-26T02:22:47.737Z,1.55
2023-03-26T02:25:19.967Z,1.50
2023-03-26T02:27:49.729Z,1.77
2023-03-26T02:30:21.535Z,1.48
2023-03-26T02:32:52.168Z,2.20
2023-03-26T02:35:21.477Z,1.95
2023-03-26T02:37:51.185Z,1.42
2023-03-26T02:40:22.259Z,1.58
2023-03-26T02:42:49.851Z,1.73
2023-03-26T02:45:17.264Z,1.60
2023-03-26T02:48:16.107Z,1.30
2023-03-26T02:50:50.092Z,1.70
2023-03-26T02:53:41.226Z,1.50
2023-03-26T02:56:26.080Z,1.50
2023-03-26T02:59:11.251Z,1.50
2023-03-26T03:01:43.070Z,1.38
2023-03-26T03:04:12.439Z,1.10
2023-03-26T03:06:40.420Z,1.10
2023-03-26T03:09:10.853Z,1.42
2023-03-26T03:11:39.125Z,1.20
2023-03-26T03:14:05.760Z,1.40
2023-03-26T03:16:33.697Z,1.70
2023-03-26T03:19:06.144Z,1.42
2023-03-26T03:21:42.369Z,1.50
2023-03-26T03:24:11.639Z,1.30
2023-03-26T03:26:42.342Z,1.30
2023-03-26T03:29:20.685Z,1.30
2023-03-26T03:31:47.616Z,1.23
2023-03-26T03:34:33.048Z,1.45
2023-03-26T03:36:59.533Z,1.40
2023-03-26T03:39:35.045Z,1.80
2023-03-26T03:42:01.895Z,1.60
2023-03-26T03:44:28.702Z,1.40
2023-03-26T03:46:56.909Z,1.52
2023-03-26T03:49:23.698Z,1.70
2023-03-26T03:51:50.724Z,1.10
2023-03-26T03:54:33.206Z,1.38
2023-03-26T03:57:26.452Z,1.02
2023-03-26T03:59:59.511Z,1.08
2023-03-26T04:02:34.729Z,1.40
2023-03-26T04:05:06.034Z,1.13
2023-03-26T04:07:32.994Z,1.13
2023-03-26T04:10:07.390Z,1.38
2023-03-26T04:12:56.557Z,1.30
2023-03-26T04:15:48.274Z,1.40
2023-03-26T04:18:15.053Z,1.17
2023-03-26T04:20:46.329Z,1.33
2023-03-26T04:23:18.842Z,1.73
2023-03-26T04:25:53.866Z,1.23
2023-03-26T04:28:56.604Z,1.27
2023-03-26T04:31:30.499Z,1.27
2023-03-26T04:34:07.795Z,1.38
2023-03-26T04:36:42.385Z,1.80
2023-03-26T04:39:11.505Z,1.90
2023-03-26T04:42:03.788Z,1.38
2023-03-26T04:44:42.326Z,1.20
2023-03-26T04:47:11.390Z,1.20
2023-03-26T04:49:46.116Z,1.27
2023-03-26T04:52:15.355Z,1.27
2023-03-26T04:55:47.084Z,1.10
2023-03-26T04:58:30.021Z,1.40
2023-03-26T05:01:01.271Z,1.60
2023-03-26T05:03:42.613Z,1.10
2023-03-26T05:06:13.690Z,1.40
2023-03-26T05:08:41.738Z,1.40
2023-03-26T05:11:12.261Z,1.30
2023-03-26T05:13:39.053Z,1.40
2023-03-26T05:16:11.176Z,1.55
2023-03-26T05:18:40.802Z,1.20
2023-03-26T05:21:08.362Z,1.40
2023-03-26T05:23:35.377Z,1.55
2023-03-26T05:26:11.059Z,1.40
2023-03-26T05:28:37.969Z,1.27
2023-03-26T05:31:39.622Z,1.77
2023-03-26T05:34:06.703Z,1.50
2023-03-26T05:36:33.380Z,1.25
2023-03-26T05:39:25.565Z,1.23
2023-03-26T05:42:12.054Z,1.20
2023-03-26T05:44:59.037Z,1.52
2023-03-26T05:47:28.417Z,1.30
2023-03-26T05:49:55.787Z,1.35
2023-03-26T05:52:22.520Z,1.65
2023-03-26T05:55:27.681Z,1.60
2023-03-26T05:58:13.539Z,1.17
2023-03-26T06:01:05.888Z,1.50
2023-03-26T06:03:52.643Z,1.15
2023-03-26T06:06:20.806Z,1.70
2023-03-26T06:09:02.246Z,1.10
2023-03-26T06:11:32.946Z,1.48
2023-03-26T06:14:01.143Z,1.67
2023-03-26T06:16:28.376Z,1.58
2023-03-26T06:19:27.108Z,1.50
2023-03-26T06:22:00.888Z,1.42
2023-03-26T06:24:37.150Z,1.20
2023-03-26T06:27:35.187Z,1.30
2023-03-26T06:30:21.906Z,1.30
2023-03-26T06:33:14.592Z,1.00
2023-03-26T06:35:46.802Z,1.42
2023-03-26T06:38:15.284Z,1.50
2023-03-26T06:40:41.910Z,1.08
2023-03-26T06:43:26.297Z,1.63
2023-03-26T06:45:55.568Z,1.40
2023-03-26T06:48:37.712Z,2.08
2023-03-26T06:51:22.887Z,1.20
2023-03-26T06:54:07.684Z,1.38
2023-03-26T06:56:57.061Z,1.15
2023-03-26T06:59:55.522Z,1.35
2023-03-26T07:02:40.372Z,1.00
2023-03-26T07:05:25.341Z,1.60
2023-03-26T07:08:10.778Z,1.27
2023-03-26T07:10:56.195Z,1.40
2023-03-26T07:13:43.190Z,1.20
2023-03-26T07:16:28.648Z,1.25
2023-03-26T07:19:17.263Z,1.52
2023-03-26T07:21:44.497Z,1.08
2023-03-26T07:24:36.836Z,1.10
2023-03-26T07:27:42.470Z,1.10
2023-03-26T07:30:37.569Z,1.38
2023-03-26T07:33:41.941Z,1.50
2023-03-26T07:36:30.693Z,1.20
2023-03-26T07:39:40.948Z,1.00
2023-03-26T07:42:38.925Z,1.30
2023-03-26T07:45:39.700Z,0.93
2023-03-26T07:48:29.769Z,0.90
2023-03-26T07:51:25.781Z,1.10
2023-03-26T07:54:00.933Z,1.25
2023-03-26T07:57:12.934Z,1.10
2023-03-26T07:59:58.267Z,1.05
2023-03-26T08:02:54.266Z,1.30
2023-03-26T08:05:50.386Z,1.05
2023-03-26T08:08:56.636Z,2.40
2023-03-26T08:11:58.603Z,1.40
2023-03-26T08:14:51.630Z,1.33
2023-03-26T08:17:24.524Z,1.30
2023-03-26T08:20:02.071Z,1.00
2023-03-26T08:22:36.612Z,1.08
2023-03-26T08:25:23.268Z,0.82
2023-03-26T08:28:19.451Z,1.10
2023-03-26T08:30:46.979Z,0.90
2023-03-26T08:33:16.711Z,0.70
2023-03-26T08:35:44.088Z,0.60
2023-03-26T08:38:15.842Z,0.68
2023-03-26T08:41:01.153Z,0.63
2023-03-26T08:43:30.969Z,0.70
2023-03-26T08:46:09.490Z,1.58
2023-03-26T08:49:13.245Z,1.30
2023-03-26T08:51:45.814Z,0.80
2023-03-26T08:54:57.536Z,1.10
2023-03-26T08:57:37.552Z,1.48
2023-03-26T09:00:19.184Z,1.30
2023-03-26T09:03:13.072Z,1.02
2023-03-26T09:06:10.161Z,0.93
2023-03-26T09:08:56.923Z,0.93
2023-03-26T09:14:11.297Z,1.17
2023-03-26T09:17:00.856Z,1.20
2023-03-26T09:19:37.422Z,1.42
2023-03-26T09:22:30.358Z,1.20
2023-03-26T09:25:35.148Z,1.08
2023-03-26T09:28:14.151Z,0.90
2023-03-26T09:30:59.171Z,1.08
2023-03-26T09:33:53.749Z,1.85
2023-03-26T09:36:43.036Z,1.15
2023-03-26T09:39:17.313Z,1.85
2023-03-26T09:42:07.976Z,1.25
2023-03-26T09:44:56.448Z,1.73
2023-03-26T09:47:45.650Z,1.10
2023-03-26T09:50:34.201Z,1.10
2023-03-26T09:53:19.607Z,0.90
2023-03-26T09:56:17.117Z,1.00
2023-03-26T09:58:57.898Z,1.10
2023-03-26T10:01:46.713Z,1.73
2023-03-26T10:04:38.512Z,1.23
2023-03-26T10:07:26.277Z,1.20
2023-03-26T10:10:18.371Z,1.42
2023-03-26T10:13:11.638Z,1.00
2023-03-26T10:15:59.557Z,1.50
2023-03-26T10:19:04.337Z,1.38
2023-03-26T10:21:43.266Z,1.08
2023-03-26T10:24:18.676Z,1.02
2023-03-26T10:27:08.319Z,0.80
2023-03-26T10:29:52.104Z,0.93
2023-03-26T10:32:37.818Z,1.20
2023-03-26T10:35:41.965Z,1.23
2023-03-26T10:38:30.033Z,1.27
2023-03-26T10:41:05.873Z,1.20
2023-03-26T10:43:36.349Z,1.00
2023-03-26T10:46:31.631Z,1.33
2023-03-26T10:49:27.392Z,0.98
2023-03-26T10:51:59.572Z,1.15
2023-03-26T10:54:31.231Z,0.98
2023-03-26T10:56:58.319Z,1.10
2023-03-26T10:59:27.517Z,0.98
2023-03-26T11:02:39.632Z,0.85
2023-03-26T11:05:24.711Z,1.23
2023-03-26T11:08:14.479Z,0.80
2023-03-26T11:11:09.522Z,1.98
2023-03-26T11:13:44.435Z,1.10
2023-03-26T11:16:18.955Z,0.90
2023-03-26T11:18:51.092Z,1.30
2023-03-26T11:21:27.854Z,1.02
2023-03-26T11:24:11.733Z,1.20
2023-03-26T11:27:24.968Z,1.33
2023-03-26T11:30:21.292Z,0.90
2023-03-26T11:32:52.726Z,0.95
2023-03-26T11:35:40.513Z,1.55
2023-03-26T11:38:20.681Z,1.08
2023-03-26T11:40:51.218Z,1.90
2023-03-26T11:43:37.091Z,0.90
2023-03-26T11:46:09.469Z,1.00
2023-03-26T11:48:46.618Z,1.10
2023-03-26T11:51:22.848Z,1.02
2023-03-26T11:56:32.132Z,1.20
2023-03-26T11:59:21.861Z,0.88
2023-03-26T12:01:58.450Z,1.10
2023-03-26T12:04:41.077Z,1.20
2023-03-26T12:07:31.712Z,1.00
2023-03-26T12:10:18.535Z,1.05
2023-03-26T12:12:47.607Z,1.05
2023-03-26T12:15:16.099Z,0.98
2023-03-26T12:17:43.156Z,0.95
2023-03-26T12:20:24.901Z,1.13
2023-03-26T12:22:53.601Z,1.42
2023-03-26T12:25:21.589Z,0.82
2023-03-26T12:27:49.474Z,0.90
2023-03-26T12:30:25.481Z,0.65
2023-03-26T12:32:56.756Z,0.75
2023-03-26T12:35:29.271Z,0.60
2023-03-26T12:38:30.154Z,0.60
2023-03-26T12:43:40.325Z,0.60
2023-03-26T12:44:52.813Z,0.77
2023-03-26T12:47:58.376Z,0.32
2023-03-26T12:50:14.336Z,0.65
2023-03-26T12:52:59.398Z,0.80
2023-03-26T12:56:10.140Z,0.60
2023-03-26T12:58:55.256Z,0.50
2023-03-26T13:01:47.135Z,0.60
2023-03-26T13:04:34.410Z,0.60
2023-03-26T13:07:15.224Z,0.77
2023-03-26T13:09:52.902Z,0.63
2023-03-26T13:12:41.046Z,0.70
2023-03-26T13:15:26.768Z,0.70
2023-03-26T13:18:21.919Z,1.20
2023-03-26T13:21:04.756Z,0.90
2023-03-26T13:23:52.413Z,1.00
2023-03-26T13:26:45.457Z,0.75
2023-03-26T13:29:42.854Z,1.00
2023-03-26T13:32:37.100Z,0.90
2023-03-26T13:35:16.877Z,1.02
2023-03-26T13:37:53.633Z,1.13
2023-03-26T13:40:24.811Z,1.30
2023-03-26T13:43:06.578Z,1.00
2023-03-26T13:45:38.890Z,1.10
2023-03-26T13:48:10.225Z,0.80
2023-03-26T13:50:40.820Z,1.10
2023-03-26T13:53:19.473Z,1.20
2023-03-26T13:55:51.908Z,0.70
2023-03-26T13:58:34.382Z,0.80
2023-03-26T14:01:33.609Z,1.00
2023-03-26T14:04:00.173Z,1.10
2023-03-26T14:06:54.044Z,1.00
2023-03-26T14:09:34.409Z,1.05
2023-03-26T14:12:26.440Z,0.70
2023-03-26T14:15:02.682Z,0.80
2023-03-26T14:17:44.870Z,1.23
2023-03-26T14:20:17.353Z,1.13
2023-03-26T14:23:25.703Z,0.90
2023-03-26T14:26:25.217Z,0.80
2023-03-26T14:28:54.755Z,0.63
2023-03-26T14:31:38.965Z,1.10
2023-03-26T14:34:33.147Z,1.40
2023-03-26T14:37:46.372Z,0.70
2023-03-26T14:40:29.758Z,0.57
2023-03-26T14:43:19.491Z,0.50
2023-03-26T14:46:07.470Z,0.60
2023-03-26T14:48:52.209Z,0.47
2023-03-26T14:51:55.235Z,0.47
2023-03-26T14:54:28.399Z,0.40
2023-03-26T14:57:17.376Z,0.50
2023-03-26T15:00:06.600Z,0.40
2023-03-26T15:02:57.869Z,0.50
2023-03-26T15:05:54.654Z,0.80
2023-03-26T15:08:58.608Z,0.75
2023-03-26T15:11:34.295Z,0.70
2023-03-26T15:14:38.431Z,0.60
2023-03-26T15:17:35.638Z,0.98
2023-03-26T15:20:33.428Z,1.60
2023-03-26T15:23:08.924Z,0.90
2023-03-26T15:25:54.061Z,0.60
2023-03-26T15:28:33.517Z,0.50
2023-03-26T15:31:26.201Z,0.70
2023-03-26T15:34:14.439Z,0.77
2023-03-26T15:37:12.599Z,0.40
2023-03-26T15:39:58.720Z,1.00
2023-03-26T15:42:38.247Z,0.60
2023-03-26T15:45:20.100Z,0.45
2023-03-26T15:48:09.556Z,0.43
2023-03-26T15:50:56.261Z,0.77
2023-03-26T15:53:47.869Z,1.30
2023-03-26T15:56:26.409Z,1.00
2023-03-26T15:59:06.114Z,0.70
2023-03-26T16:01:47.569Z,0.77
2023-03-26T16:04:29.187Z,0.60
2023-03-26T16:07:03.458Z,0.63
2023-03-26T16:09:55.640Z,0.45
2023-03-26T16:12:34.683Z,0.75
2023-03-26T16:15:25.081Z,0.50
2023-03-26T16:18:10.332Z,0.50
2023-03-26T16:21:32.137Z,0.50
2023-03-26T16:24:02.327Z,0.70
2023-03-26T16:26:31.571Z,0.60
2023-03-26T16:29:15.727Z,0.40
2023-03-26T16:31:57.789Z,0.80
2023-03-26T16:34:38.803Z,1.23
2023-03-26T16:37:26.300Z,0.60
2023-03-26T16:39:53.081Z,0.60
2023-03-26T16:42:28.008Z,0.43
2023-03-26T16:45:17.843Z,0.70
2023-03-26T16:48:05.798Z,0.50
2023-03-26T16:50:46.164Z,0.63
2023-03-26T16:53:48.647Z,0.90
2023-03-26T16:56:36.483Z,0.80
2023-03-26T16:59:31.717Z,0.70
2023-03-26T17:02:16.164Z,0.73
2023-03-26T17:04:48.497Z,0.60
2023-03-26T17:07:39.567Z,0.90
2023-03-26T17:10:30.782Z,2.70
2023-03-26T17:13:07.900Z,0.90
2023-03-26T17:15:45.055Z,0.90
2023-03-26T17:18:30.073Z,0.52
2023-03-26T17:21:46.236Z,0.60
2023-03-26T17:24:39.002Z,0.50
2023-03-26T17:27:49.919Z,0.60
2023-03-26T17:30:30.523Z,0.50
2023-03-26T17:33:03.516Z,0.52
2023-03-26T17:35:39.847Z,0.68
2023-03-26T17:38:18.284Z,0.75
2023-03-26T17:41:04.009Z,0.60
2023-03-26T17:43:44.803Z,0.50
2023-03-26T17:46:39.158Z,0.60
2023-03-26T17:49:11.772Z,0.70
2023-03-26T17:52:15.586Z,0.70
2023-03-26T17:54:46.420Z,0.63
2023-03-26T17:57:41.840Z,0.60
2023-03-26T18:00:16.671Z,0.60
2023-03-26T18:02:50.485Z,0.70
2023-03-26T18:05:17.500Z,0.60
2023-03-26T18:08:12.559Z,0.50
2023-03-26T18:11:12.774Z,0.65
2023-03-26T18:14:20.928Z,0.50
2023-03-26T18:16:53.887Z,0.52
2023-03-26T18:19:22.777Z,0.70
2023-03-26T18:21:52.144Z,0.95
2023-03-26T18:24:40.270Z,0.60
2023-03-26T18:27:16.759Z,0.52
2023-03-26T18:29:46.034Z,0.60
2023-03-26T18:32:12.465Z,0.50
2023-03-26T18:34:49.392Z,0.60
2023-03-26T18:37:23.755Z,0.60
2023-03-26T18:39:56.685Z,0.70
2023-03-26T18:42:25.750Z,0.77
2023-03-26T18:44:53.484Z,0.70
2023-03-26T18:47:23.808Z,0.90
2023-03-26T18:49:56.582Z,0.70
2023-03-26T18:52:23.251Z,0.70
2023-03-26T18:54:53.256Z,0.85
2023-03-26T18:57:26.325Z,0.60
2023-03-26T18:59:54.942Z,0.80
2023-03-26T19:02:22.143Z,1.10
2023-03-26T19:04:50.860Z,0.63
2023-03-26T19:07:23.716Z,0.82
2023-03-26T19:09:54.678Z,1.00
2023-03-26T19:12:27.252Z,0.70
2023-03-26T19:15:15.636Z,1.98
2023-03-26T19:17:46.987Z,1.50
2023-03-26T19:20:19.381Z,1.15
2023-03-26T19:22:47.528Z,1.23
2023-03-26T19:25:22.081Z,0.70
2023-03-26T19:27:50.665Z,1.10
2023-03-26T19:30:33.863Z,0.73
2023-03-26T19:33:13.241Z,1.10
2023-03-26T19:35:42.123Z,2.25
2023-03-26T19:38:22.538Z,1.02
2023-03-26T19:40:51.814Z,0.90
2023-03-26T19:43:18.874Z,0.75
2023-03-26T19:45:59.749Z,1.42
2023-03-26T19:48:45.774Z,0.80
2023-03-26T19:51:20.431Z,0.50
2023-03-26T19:53:52.914Z,0.80
2023-03-26T19:56:21.222Z,0.90
2023-03-26T19:58:49.988Z,0.80
2023-03-26T20:01:19.634Z,1.10
2023-03-26T20:03:48.694Z,0.65
2023-03-26T20:06:18.080Z,0.60
2023-03-26T20:08:45.184Z,0.80
2023-03-26T20:11:23.476Z,0.70
2023-03-26T20:13:50.872Z,0.50
2023-03-26T20:16:26.505Z,0.70
2023-03-26T20:18:57.116Z,0.57
2023-03-26T20:21:25.355Z,0.60
2023-03-26T20:23:55.199Z,0.90
2023-03-26T20:26:23.242Z,0.63
2023-03-26T20:31:25.153Z,0.70
2023-03-26T20:33:53.211Z,0.68
2023-03-26T20:36:33.329Z,0.65
2023-03-26T20:39:01.497Z,0.70
2023-03-26T20:41:28.965Z,0.82
2023-03-26T20:43:55.611Z,0.60
2023-03-26T20:46:23.946Z,0.50
2023-03-26T20:48:57.994Z,0.93
2023-03-26T20:51:24.582Z,0.98
2023-03-26T20:53:51.045Z,0.70
2023-03-26T20:56:19.314Z,0.82
2023-03-26T20:59:03.647Z,0.60
2023-03-26T21:01:34.827Z,0.60
2023-03-26T21:04:04.104Z,0.93
2023-03-26T21:06:30.559Z,0.82
2023-03-26T21:08:57.292Z,0.50
2023-03-26T21:11:40.881Z,0.70
2023-03-26T21:14:16.093Z,0.52
2023-03-26T21:16:42.880Z,1.00
2023-03-26T21:19:10.367Z,0.68
2023-03-26T21:21:50.772Z,0.65
2023-03-26T21:24:30.233Z,0.60
2023-03-26T21:27:04.033Z,0.63
2023-03-26T21:29:30.928Z,0.98
2023-03-26T21:31:57.728Z,0.57
2023-03-26T21:34:24.472Z,0.65
2023-03-26T21:36:51.764Z,0.75
2023-03-26T21:39:18.423Z,0.70
2023-03-26T21:41:48.374Z,0.50
2023-03-26T21:44:32.407Z,0.73
2023-03-26T21:46:59.189Z,0.95
2023-03-26T21:49:26.045Z,1.02
2023-03-26T21:51:52.782Z,0.80
2023-03-26T21:54:31.168Z,0.80
2023-03-26T21:57:19.809Z,0.80
2023-03-26T21:59:54.345Z,0.98
2023-03-26T22:02:39.353Z,1.02
2023-03-26T22:05:12.886Z,1.05
2023-03-26T22:07:54.364Z,0.88
2023-03-26T22:10:21.053Z,0.75
2023-03-26T22:12:47.929Z,0.75
2023-03-26T22:15:14.825Z,0.80
2023-03-26T22:17:42.147Z,1.23
2023-03-26T22:20:14.098Z,0.50
2023-03-26T22:22:46.100Z,0.57
2023-03-26T22:25:12.907Z,0.90
2023-03-26T22:27:44.549Z,1.05
2023-03-26T22:30:12.846Z,1.23
2023-03-26T22:32:39.856Z,0.70
2023-03-26T22:35:07.077Z,0.68
2023-03-26T22:37:34.432Z,0.70
2023-03-26T22:40:01.224Z,0.70
2023-03-26T22:42:27.948Z,0.80
2023-03-26T22:44:54.377Z,0.70
2023-03-26T22:47:21.835Z,0.60
2023-03-26T22:49:48.268Z,0.50
2023-03-26T22:52:14.710Z,0.90
2023-03-26T22:54:41.506Z,0.60
2023-03-26T22:57:08.026Z,0.50
2023-03-26T22:59:34.572Z,0.75
2023-03-26T23:02:01.223Z,0.77
2023-03-26T23:04:31.150Z,0.60
2023-03-26T23:06:58.679Z,0.52
2023-03-26T23:09:25.209Z,0.50
2023-03-26T23:11:51.888Z,0.60
2023-03-26T23:14:19.002Z,0.88
2023-03-26T23:16:48.370Z,0.70
2023-03-26T23:19:14.789Z,0.60
2023-03-26T23:21:41.284Z,0.60
2023-03-26T23:24:08.121Z,0.50
2023-03-26T23:26:47.867Z,0.50
2023-03-26T23:29:17.279Z,0.60
2023-03-26T23:31:43.866Z,0.50
2023-03-26T23:34:10.921Z,0.50
2023-03-26T23:36:37.441Z,0.50
2023-03-26T23:39:04.678Z,0.50
2023-03-26T23:41:31.324Z,0.50
2023-03-26T23:43:57.737Z,0.60
2023-03-26T23:46:30.656Z,0.50
2023-03-26T23:48:59.742Z,0.60
2023-03-26T23:51:26.544Z,0.47
2023-03-26T23:53:53.683Z,0.50
2023-03-26T23:56:20.180Z,0.60
2023-03-26T23:58:47.702Z,0.70
